createdAt,value
2022-11-24T00:00:32.804Z,2.55
2022-11-24T00:04:01.174Z,2.55
2022-11-24T00:07:04.121Z,2.51
2022-11-24T00:10:07.193Z,2.53
2022-11-24T00:13:10.365Z,2.54
2022-11-24T00:16:16.483Z,2.53
2022-11-24T00:19:20.072Z,2.53
2022-11-24T00:22:22.997Z,2.54
2022-11-24T00:25:25.804Z,2.57
2022-11-24T00:28:28.660Z,2.60
2022-11-24T00:31:35.320Z,2.57
2022-11-24T00:34:38.591Z,2.61
2022-11-24T00:37:41.374Z,2.58
2022-11-24T00:40:44.189Z,2.56
2022-11-24T00:43:47.079Z,2.60
2022-11-24T00:46:50.115Z,2.61
2022-11-24T00:49:53.000Z,2.61
2022-11-24T00:52:55.801Z,2.61
2022-11-24T00:55:58.777Z,2.64
2022-11-24T00:59:32.820Z,2.63
2022-11-24T01:02:35.652Z,2.64
2022-11-24T01:05:39.495Z,2.62
2022-11-24T01:08:43.222Z,2.60
2022-11-24T01:12:01.368Z,2.62
2022-11-24T01:15:04.548Z,2.67
2022-11-24T01:18:07.424Z,2.68
2022-11-24T01:21:10.678Z,2.66
2022-11-24T01:24:14.460Z,2.65
2022-11-24T01:27:17.318Z,2.66
2022-11-24T01:30:22.388Z,2.67
2022-11-24T01:33:25.767Z,2.67
2022-11-24T01:36:28.603Z,2.63
2022-11-24T01:39:31.435Z,2.60
2022-11-24T01:42:48.141Z,2.58
2022-11-24T01:45:51.684Z,2.59
2022-11-24T01:49:36.243Z,2.62
2022-11-24T01:52:46.131Z,2.55
2022-11-24T01:55:50.785Z,2.51
2022-11-24T01:58:57.551Z,2.52
2022-11-24T02:02:00.574Z,2.55
2022-11-24T02:05:08.293Z,2.55
2022-11-24T02:08:29.168Z,2.51
2022-11-24T02:11:37.340Z,2.53
2022-11-24T02:14:42.939Z,2.55
2022-11-24T02:17:45.779Z,2.57
2022-11-24T02:20:48.792Z,2.57
2022-11-24T02:24:05.318Z,2.56
2022-11-24T02:27:10.709Z,2.57
2022-11-24T02:30:13.697Z,2.60
2022-11-24T02:33:17.448Z,2.63
2022-11-24T02:36:21.909Z,2.63
2022-11-24T02:39:25.056Z,2.59
2022-11-24T02:42:33.243Z,2.57
2022-11-24T02:45:36.151Z,2.58
2022-11-24T02:48:39.531Z,2.59
2022-11-24T02:51:42.368Z,2.61
2022-11-24T02:54:48.433Z,2.61
2022-11-24T02:57:51.278Z,2.59
2022-11-24T03:00:57.526Z,2.56
2022-11-24T03:04:00.347Z,2.56
2022-11-24T03:07:12.664Z,2.53
2022-11-24T03:10:16.343Z,2.52
2022-11-24T03:13:19.196Z,2.53
2022-11-24T03:16:22.092Z,2.56
2022-11-24T03:19:25.183Z,2.58
2022-11-24T03:22:29.128Z,2.60
2022-11-24T03:25:31.926Z,2.59
2022-11-24T03:28:34.872Z,2.58
2022-11-24T03:31:37.788Z,2.60
2022-11-24T03:34:44.349Z,2.62
2022-11-24T03:37:47.284Z,2.64
2022-11-24T03:40:50.188Z,2.63
2022-11-24T03:43:53.043Z,2.62
2022-11-24T03:46:55.962Z,2.57
2022-11-24T03:50:06.915Z,2.51
2022-11-24T03:53:10.471Z,2.51
2022-11-24T03:56:13.599Z,2.50
2022-11-24T03:59:17.072Z,2.49
2022-11-24T04:02:19.943Z,2.52
2022-11-24T04:05:22.784Z,2.52
2022-11-24T04:08:25.578Z,2.53
2022-11-24T04:11:47.205Z,2.53
2022-11-24T04:14:50.131Z,2.53
2022-11-24T04:17:56.774Z,2.55
2022-11-24T04:20:59.731Z,2.57
2022-11-24T04:24:02.545Z,2.59
2022-11-24T04:27:05.458Z,2.60
2022-11-24T04:30:08.698Z,2.60
2022-11-24T04:33:11.815Z,2.62
2022-11-24T04:36:14.805Z,2.63
2022-11-24T04:39:25.933Z,2.63
2022-11-24T04:42:31.068Z,2.61
2022-11-24T04:45:33.865Z,2.62
2022-11-24T04:48:36.673Z,2.62
2022-11-24T04:51:40.357Z,2.62
2022-11-24T04:54:43.498Z,2.62
2022-11-24T04:57:46.358Z,2.60
2022-11-24T05:00:49.214Z,2.56
2022-11-24T05:03:56.483Z,2.57
2022-11-24T05:07:00.452Z,2.66
2022-11-24T05:10:22.346Z,2.66
2022-11-24T05:13:25.148Z,2.61
2022-11-24T05:16:28.007Z,2.58
2022-11-24T05:19:32.539Z,2.60
2022-11-24T05:22:35.597Z,2.62
2022-11-24T05:25:39.703Z,2.62
2022-11-24T05:28:43.414Z,2.61
2022-11-24T05:31:46.310Z,2.63
2022-11-24T05:34:49.608Z,2.62
2022-11-24T05:37:52.485Z,2.60
2022-11-24T05:41:01.489Z,2.58
2022-11-24T05:44:04.384Z,2.56
2022-11-24T05:47:32.122Z,2.60
2022-11-24T05:50:35.786Z,2.55
2022-11-24T05:53:38.633Z,2.53
2022-11-24T05:56:44.348Z,2.53
2022-11-24T05:59:47.207Z,2.51
2022-11-24T06:02:50.165Z,2.52
2022-11-24T06:05:54.824Z,2.56
2022-11-24T06:08:57.739Z,2.57
2022-11-24T06:12:00.572Z,2.54
2022-11-24T06:15:03.926Z,2.52
2022-11-24T06:18:06.995Z,2.50
2022-11-24T06:21:11.862Z,2.51
2022-11-24T06:24:35.850Z,2.51
2022-11-24T06:27:38.942Z,2.49
2022-11-24T06:30:41.757Z,2.45
2022-11-24T06:33:44.765Z,2.44
2022-11-24T06:36:47.551Z,2.45
2022-11-24T06:39:50.585Z,2.46
2022-11-24T06:42:53.433Z,2.46
2022-11-24T06:45:57.517Z,2.42
2022-11-24T06:49:00.742Z,2.40
2022-11-24T06:52:03.670Z,2.42
2022-11-24T06:55:07.391Z,2.43
2022-11-24T06:58:10.474Z,2.46
2022-11-24T07:01:17.588Z,2.43
2022-11-24T07:04:20.706Z,2.48
2022-11-24T07:07:23.762Z,2.51
2022-11-24T07:10:26.754Z,2.48
2022-11-24T07:13:29.573Z,2.42
2022-11-24T07:16:33.000Z,2.40
2022-11-24T07:19:40.878Z,2.43
2022-11-24T07:22:43.665Z,2.49
2022-11-24T07:25:49.687Z,2.52
2022-11-24T07:28:52.989Z,2.49
2022-11-24T07:31:57.585Z,2.45
2022-11-24T07:35:02.519Z,2.43
2022-11-24T07:38:05.403Z,2.42
2022-11-24T07:41:12.084Z,2.43
2022-11-24T07:44:15.980Z,2.43
2022-11-24T07:47:18.862Z,2.45
2022-11-24T07:50:21.728Z,2.45
2022-11-24T07:53:24.517Z,2.47
2022-11-24T07:56:27.387Z,2.47
2022-11-24T07:59:30.210Z,2.45
2022-11-24T08:02:33.952Z,2.43
2022-11-24T08:05:44.663Z,2.46
2022-11-24T08:09:05.194Z,2.47
2022-11-24T08:12:08.205Z,2.51
2022-11-24T08:15:11.630Z,2.51
2022-11-24T08:18:14.638Z,2.47
2022-11-24T08:21:17.943Z,2.49
2022-11-24T08:24:20.784Z,2.51
2022-11-24T08:27:23.629Z,2.52
2022-11-24T08:30:27.013Z,2.51
2022-11-24T08:33:30.757Z,2.52
2022-11-24T08:36:34.236Z,2.57
2022-11-24T08:39:37.027Z,2.64
2022-11-24T08:42:40.006Z,2.66
2022-11-24T08:45:42.942Z,2.67
2022-11-24T08:48:52.713Z,2.70
2022-11-24T08:52:10.963Z,2.70
2022-11-24T08:55:14.299Z,2.70
2022-11-24T08:58:17.744Z,2.74
2022-11-24T09:01:20.928Z,2.75
2022-11-24T09:04:23.816Z,2.79
2022-11-24T09:07:26.980Z,2.87
2022-11-24T09:10:29.943Z,2.90
2022-11-24T09:13:32.970Z,2.90
2022-11-24T09:16:36.372Z,2.91
2022-11-24T09:19:39.643Z,2.93
2022-11-24T09:22:43.321Z,2.93
2022-11-24T09:25:46.528Z,2.95
2022-11-24T09:28:54.755Z,2.95
2022-11-24T09:32:05.095Z,2.96
2022-11-24T09:35:09.850Z,2.98
2022-11-24T09:38:14.038Z,3.02
2022-11-24T09:41:17.758Z,3.05
2022-11-24T09:44:38.030Z,3.06
2022-11-24T09:47:59.224Z,3.09
2022-11-24T09:51:04.720Z,3.10
2022-11-24T09:54:26.768Z,3.12
2022-11-24T09:57:37.568Z,3.08
2022-11-24T10:00:42.248Z,3.07
2022-11-24T10:03:55.063Z,3.13
2022-11-24T10:07:28.344Z,3.16
2022-11-24T10:11:00.432Z,3.21
2022-11-24T10:14:33.033Z,3.29
2022-11-24T10:18:07.127Z,3.37
2022-11-24T10:21:59.904Z,3.44
2022-11-24T10:25:13.249Z,3.52
2022-11-24T10:28:16.692Z,3.55
2022-11-24T10:31:25.335Z,3.58
2022-11-24T10:34:42.403Z,3.62
2022-11-24T10:38:30.921Z,3.66
2022-11-24T10:41:46.972Z,3.68
2022-11-24T10:45:01.118Z,3.73
2022-11-24T10:48:19.043Z,3.76
2022-11-24T10:51:48.095Z,3.83
2022-11-24T10:54:56.847Z,3.88
2022-11-24T10:58:15.787Z,3.88
2022-11-24T11:01:28.152Z,3.85
2022-11-24T11:04:33.967Z,3.90
2022-11-24T11:07:36.936Z,3.96
2022-11-24T11:10:41.514Z,3.98
2022-11-24T11:13:58.220Z,3.99
2022-11-24T11:17:38.563Z,4.02
2022-11-24T11:20:51.348Z,4.01
2022-11-24T11:23:55.078Z,4.06
2022-11-24T11:27:02.991Z,4.13
2022-11-24T11:34:16.021Z,4.16
2022-11-24T11:37:31.133Z,4.21
2022-11-24T11:40:35.038Z,4.26
2022-11-24T11:43:41.164Z,4.36
2022-11-24T11:46:45.182Z,4.52
2022-11-24T11:49:49.915Z,4.61
2022-11-24T11:53:27.405Z,4.64
2022-11-24T11:56:35.449Z,4.72
2022-11-24T11:59:55.333Z,4.78
2022-11-24T12:03:26.266Z,4.84
2022-11-24T12:06:38.533Z,4.91
2022-11-24T12:09:56.644Z,4.94
2022-11-24T12:13:37.096Z,4.95
2022-11-24T12:16:53.489Z,4.97
2022-11-24T12:20:02.488Z,4.88
2022-11-24T12:23:05.623Z,4.79
2022-11-24T12:26:16.920Z,4.78
2022-11-24T12:29:50.968Z,4.79
2022-11-24T12:33:21.569Z,4.75
2022-11-24T12:36:47.845Z,4.69
2022-11-24T12:41:06.508Z,4.60
2022-11-24T12:44:45.887Z,4.65
2022-11-24T12:48:13.872Z,4.78
2022-11-24T12:51:23.524Z,4.85
2022-11-24T12:54:34.634Z,4.86
2022-11-24T12:57:51.560Z,4.80
2022-11-24T13:01:18.924Z,4.78
2022-11-24T13:04:56.734Z,4.87
2022-11-24T13:08:03.015Z,4.90
2022-11-24T13:11:21.117Z,4.95
2022-11-24T13:14:37.814Z,4.96
2022-11-24T13:17:58.438Z,4.93
2022-11-24T13:21:48.227Z,4.88
2022-11-24T13:25:13.517Z,4.83
2022-11-24T13:29:03.535Z,4.79
2022-11-24T13:32:12.105Z,4.78
2022-11-24T13:35:16.597Z,4.78
2022-11-24T13:38:44.923Z,4.75
2022-11-24T13:41:47.773Z,4.71
2022-11-24T13:44:53.904Z,4.65
2022-11-24T13:47:57.276Z,4.61
2022-11-24T13:51:01.745Z,4.60
2022-11-24T13:54:10.624Z,4.63
2022-11-24T13:57:33.483Z,4.62
2022-11-24T14:00:58.727Z,4.54
2022-11-24T14:04:31.009Z,4.48
2022-11-24T14:07:34.754Z,4.42
2022-11-24T14:10:41.435Z,4.42
2022-11-24T14:13:44.979Z,4.42
2022-11-24T14:16:48.053Z,4.43
2022-11-24T14:19:56.254Z,4.41
2022-11-24T14:23:00.916Z,4.42
2022-11-24T14:26:03.883Z,4.41
2022-11-24T14:29:20.307Z,4.39
2022-11-24T14:32:26.990Z,4.35
2022-11-24T14:35:35.693Z,4.31
2022-11-24T14:38:43.196Z,4.28
2022-11-24T14:41:58.036Z,4.27
2022-11-24T14:45:04.004Z,4.27
2022-11-24T14:48:16.930Z,4.25
2022-11-24T14:51:29.679Z,4.21
2022-11-24T14:54:33.112Z,4.16
2022-11-24T14:57:38.009Z,4.08
2022-11-24T15:00:41.006Z,4.06
2022-11-24T15:03:50.550Z,4.15
2022-11-24T15:07:16.205Z,4.09
2022-11-24T15:10:25.642Z,4.06
2022-11-24T15:13:37.467Z,4.06
2022-11-24T15:16:40.633Z,4.06
2022-11-24T15:19:48.098Z,4.03
2022-11-24T15:22:52.596Z,4.00
2022-11-24T15:25:57.307Z,3.97
2022-11-24T15:29:00.246Z,3.99
2022-11-24T15:32:16.531Z,3.99
2022-11-24T15:35:21.740Z,3.98
2022-11-24T15:38:24.638Z,3.89
2022-11-24T15:41:32.954Z,3.82
2022-11-24T15:44:37.252Z,3.80
2022-11-24T15:48:03.244Z,3.81
2022-11-24T15:51:11.580Z,3.76
2022-11-24T15:54:16.737Z,3.74
2022-11-24T15:57:21.838Z,3.73
2022-11-24T16:00:33.942Z,3.74
2022-11-24T16:03:52.455Z,3.72
2022-11-24T16:07:30.198Z,3.74
2022-11-24T16:11:10.588Z,3.71
2022-11-24T16:14:27.420Z,3.69
2022-11-24T16:17:47.436Z,3.70
2022-11-24T16:21:07.804Z,3.73
2022-11-24T16:24:52.705Z,3.67
2022-11-24T16:42:33.535Z,3.58
2022-11-24T16:45:42.225Z,3.49
2022-11-24T16:49:15.291Z,3.50
2022-11-24T16:54:10.111Z,3.49
2022-11-24T17:13:25.980Z,3.48
2022-11-24T17:16:42.860Z,3.43
2022-11-24T17:20:08.455Z,3.34
2022-11-24T17:24:01.039Z,3.46
2022-11-24T17:27:47.179Z,3.41
2022-11-24T17:31:29.773Z,3.45
2022-11-24T17:34:50.264Z,3.44
2022-11-24T17:39:39.340Z,3.40
2022-11-24T17:47:29.154Z,3.38
2022-11-24T17:50:53.337Z,3.37
2022-11-24T17:54:46.659Z,3.32
2022-11-24T17:58:10.034Z,3.32
2022-11-24T18:05:27.471Z,3.31
2022-11-24T18:09:39.026Z,3.29
2022-11-24T18:13:04.874Z,3.26
2022-11-24T18:16:26.091Z,3.28
2022-11-24T18:22:36.594Z,3.36
2022-11-24T18:24:40.959Z,3.31
2022-11-24T18:28:25.216Z,3.26
2022-11-24T18:32:30.172Z,3.23
2022-11-24T18:40:07.724Z,3.21
2022-11-24T18:43:19.071Z,3.21
2022-11-24T18:46:25.416Z,3.22
2022-11-24T18:49:32.103Z,3.19
2022-11-24T18:52:48.711Z,3.20
2022-11-24T18:56:13.146Z,3.20
2022-11-24T18:59:18.260Z,3.14
2022-11-24T19:02:26.565Z,3.15
2022-11-24T19:06:01.598Z,3.17
2022-11-24T19:09:20.697Z,3.17
2022-11-24T19:12:26.448Z,3.19
2022-11-24T19:15:37.223Z,3.18
2022-11-24T19:22:05.730Z,3.15
2022-11-24T19:25:17.349Z,3.18
2022-11-24T19:28:25.528Z,3.19
2022-11-24T19:31:42.024Z,3.18
2022-11-24T19:34:47.262Z,3.19
2022-11-24T19:37:56.248Z,3.23
2022-11-24T19:41:05.490Z,3.25
2022-11-24T19:44:13.039Z,3.24
2022-11-24T19:47:22.023Z,3.23
2022-11-24T19:50:25.222Z,3.24
2022-11-24T19:53:37.200Z,3.25
2022-11-24T19:56:45.434Z,3.28
2022-11-24T19:59:57.580Z,3.28
2022-11-24T20:03:01.153Z,3.30
2022-11-24T20:06:08.351Z,3.30
2022-11-24T20:09:14.241Z,3.34
2022-11-24T20:12:23.605Z,3.37
2022-11-24T20:19:04.600Z,3.45
2022-11-24T20:22:14.480Z,3.52
2022-11-24T20:25:18.133Z,3.55
2022-11-24T20:28:39.966Z,3.52
2022-11-24T20:32:04.039Z,3.54
2022-11-24T20:35:21.844Z,3.50
2022-11-24T20:38:25.285Z,3.51
2022-11-24T20:41:43.944Z,3.48
2022-11-24T20:44:55.111Z,3.49
2022-11-24T20:47:58.179Z,3.53
2022-11-24T20:51:22.941Z,3.52
2022-11-24T20:54:27.294Z,3.49
2022-11-24T20:57:30.602Z,3.52
2022-11-24T21:00:34.605Z,3.52
2022-11-24T21:03:42.793Z,3.52
2022-11-24T21:06:46.921Z,3.49
2022-11-24T21:09:49.983Z,3.40
2022-11-24T21:12:52.965Z,3.44
2022-11-24T21:16:02.364Z,3.51
2022-11-24T21:19:08.851Z,3.53
2022-11-24T21:22:13.829Z,3.49
2022-11-24T21:25:21.105Z,3.53
2022-11-24T21:28:24.224Z,3.54
2022-11-24T21:31:27.157Z,3.53
2022-11-24T21:34:30.112Z,3.52
2022-11-24T21:37:33.195Z,3.49
2022-11-24T21:40:36.306Z,3.49
2022-11-24T21:43:39.245Z,3.53
2022-11-24T21:46:48.035Z,3.59
2022-11-24T21:49:55.573Z,3.55
2022-11-24T21:53:03.291Z,3.48
2022-11-24T21:56:12.768Z,3.51
2022-11-24T21:59:15.835Z,3.55
2022-11-24T22:02:19.860Z,3.54
2022-11-24T22:05:22.790Z,3.53
2022-11-24T22:08:26.995Z,3.52
2022-11-24T22:11:29.853Z,3.53
2022-11-24T22:14:36.208Z,3.48
2022-11-24T22:17:43.060Z,3.50
2022-11-24T22:20:54.376Z,3.52
2022-11-24T22:23:57.746Z,3.44
2022-11-24T22:27:03.013Z,3.32
2022-11-24T22:30:06.690Z,3.32
2022-11-24T22:33:09.587Z,3.37
2022-11-24T22:36:14.039Z,3.42
2022-11-24T22:39:17.002Z,3.43
2022-11-24T22:42:20.942Z,3.48
2022-11-24T22:45:24.156Z,3.49
2022-11-24T22:48:28.227Z,3.52
2022-11-24T22:51:35.662Z,3.55
2022-11-24T22:54:38.595Z,3.56
2022-11-24T22:57:46.068Z,3.62
2022-11-24T23:00:51.322Z,3.65
2022-11-24T23:03:54.814Z,3.69
2022-11-24T23:06:58.458Z,3.70
2022-11-24T23:10:01.335Z,3.69
2022-11-24T23:13:04.244Z,3.70
2022-11-24T23:16:10.231Z,3.71
2022-11-24T23:19:13.165Z,3.71
2022-11-24T23:22:16.015Z,3.69
2022-11-24T23:25:18.841Z,3.69
2022-11-24T23:28:22.486Z,3.68
2022-11-24T23:31:30.251Z,3.71
2022-11-24T23:34:33.386Z,3.72
2022-11-24T23:37:59.719Z,3.71
2022-11-24T23:41:01.432Z,3.72
2022-11-24T23:44:04.432Z,3.72
2022-11-24T23:47:07.262Z,3.76
2022-11-24T23:50:10.413Z,3.78
2022-11-24T23:53:13.291Z,3.80
2022-11-24T23:56:19.373Z,3.81
2022-11-24T23:59:23.007Z,3.85
